createdAt,value
2017-10-11T00:02:14.042Z,15.20
2017-10-11T00:04:40.369Z,15.00
2017-10-11T00:07:06.720Z,15.00
2017-10-11T00:09:33.018Z,14.90
2017-10-11T00:12:00.112Z,15.10
2017-10-11T00:14:26.423Z,15.10
2017-10-11T00:16:53.501Z,15.00
2017-10-11T00:19:19.838Z,15.00
2017-10-11T00:21:46.939Z,15.00
2017-10-11T00:24:13.261Z,15.00
2017-10-11T00:26:42.458Z,15.10
2017-10-11T00:29:08.806Z,15.00
2017-10-11T00:31:35.112Z,15.00
2017-10-11T00:34:02.210Z,15.20
2017-10-11T00:36:28.531Z,15.20
2017-10-11T00:38:54.848Z,15.10
2017-10-11T00:41:21.880Z,15.60
2017-10-11T00:43:48.274Z,14.90
2017-10-11T00:46:14.613Z,15.10
2017-10-11T00:48:40.938Z,15.30
2017-10-11T00:51:07.359Z,15.30
2017-10-11T00:53:33.698Z,15.00
2017-10-11T00:56:00.863Z,15.10
2017-10-11T00:58:27.786Z,15.10
2017-10-11T01:00:54.199Z,15.20
2017-10-11T01:03:20.730Z,15.10
2017-10-11T01:05:47.079Z,15.10
2017-10-11T01:08:13.469Z,15.20
2017-10-11T01:10:39.845Z,15.10
2017-10-11T01:13:06.023Z,15.10
2017-10-11T01:15:32.187Z,14.90
2017-10-11T01:17:58.337Z,14.90
2017-10-11T01:20:25.193Z,15.10
2017-10-11T01:22:51.416Z,15.10
2017-10-11T01:25:18.316Z,15.10
2017-10-11T01:27:44.470Z,15.50
2017-10-11T01:30:14.485Z,15.10
2017-10-11T01:32:40.625Z,15.20
2017-10-11T01:35:07.281Z,15.10
2017-10-11T01:37:33.674Z,15.10
2017-10-11T01:40:00.822Z,15.00
2017-10-11T01:42:27.886Z,15.10
2017-10-11T01:44:56.178Z,15.10
2017-10-11T01:47:22.534Z,15.10
2017-10-11T01:49:49.477Z,14.90
2017-10-11T01:52:15.789Z,15.10
2017-10-11T01:54:42.113Z,15.00
2017-10-11T01:57:10.821Z,15.10
2017-10-11T01:59:37.145Z,15.00
2017-10-11T02:02:03.497Z,15.00
2017-10-11T02:04:29.833Z,15.10
2017-10-11T02:06:56.207Z,14.90
2017-10-11T02:09:22.627Z,15.00
2017-10-11T02:11:59.259Z,15.00
2017-10-11T02:14:25.625Z,15.10
2017-10-11T02:16:51.971Z,15.10
2017-10-11T02:19:18.320Z,15.00
2017-10-11T02:21:44.710Z,15.30
2017-10-11T02:24:11.052Z,15.00
2017-10-11T02:26:37.400Z,15.30
2017-10-11T02:29:03.745Z,14.90
2017-10-11T02:31:30.081Z,15.00
2017-10-11T02:33:56.464Z,15.00
2017-10-11T02:36:22.814Z,15.10
2017-10-11T02:38:49.289Z,15.20
2017-10-11T02:41:15.661Z,14.90
2017-10-11T02:43:42.010Z,14.90
2017-10-11T02:46:09.168Z,14.80
2017-10-11T02:48:35.556Z,14.40
2017-10-11T02:51:01.882Z,14.90
2017-10-11T02:53:28.208Z,14.70
2017-10-11T02:55:54.620Z,15.10
2017-10-11T02:58:20.981Z,14.80
2017-10-11T03:00:47.350Z,15.00
2017-10-11T03:03:13.693Z,14.90
2017-10-11T03:05:40.809Z,14.80
2017-10-11T03:08:07.161Z,15.00
2017-10-11T03:10:35.766Z,15.00
2017-10-11T03:13:04.111Z,14.90
2017-10-11T03:15:30.468Z,14.90
2017-10-11T03:17:56.790Z,15.00
2017-10-11T03:20:23.387Z,15.50
2017-10-11T03:22:49.725Z,14.80
2017-10-11T03:25:16.078Z,14.90
2017-10-11T03:27:42.410Z,14.70
2017-10-11T03:30:08.747Z,14.70
2017-10-11T03:32:35.098Z,14.80
2017-10-11T03:35:02.164Z,14.90
2017-10-11T03:37:28.509Z,14.80
2017-10-11T03:39:55.618Z,14.90
2017-10-11T03:42:21.951Z,14.60
2017-10-11T03:44:48.385Z,15.10
2017-10-11T03:47:14.735Z,15.20
2017-10-11T03:49:41.217Z,14.80
2017-10-11T03:52:07.556Z,14.80
2017-10-11T03:54:36.799Z,14.80
2017-10-11T03:57:03.117Z,14.60
2017-10-11T03:59:29.426Z,14.80
2017-10-11T04:01:55.753Z,14.90
2017-10-11T04:04:22.151Z,14.90
2017-10-11T04:06:48.473Z,14.80
2017-10-11T04:09:14.849Z,14.70
2017-10-11T04:11:41.223Z,15.20
2017-10-11T04:14:07.571Z,14.80
2017-10-11T04:16:33.907Z,14.90
2017-10-11T04:19:00.277Z,14.80
2017-10-11T04:21:26.734Z,14.90
2017-10-11T04:23:54.382Z,14.90
2017-10-11T04:26:21.512Z,14.70
2017-10-11T04:28:47.863Z,14.70
2017-10-11T04:31:14.225Z,14.80
2017-10-11T04:33:40.582Z,14.70
2017-10-11T04:36:06.986Z,15.00
2017-10-11T04:38:34.073Z,14.60
2017-10-11T04:41:00.413Z,14.70
2017-10-11T04:43:30.022Z,14.80
2017-10-11T04:45:57.133Z,14.80
2017-10-11T04:48:23.493Z,14.80
2017-10-11T04:50:50.644Z,14.70
2017-10-11T04:53:16.975Z,14.70
2017-10-11T04:55:43.360Z,14.70
2017-10-11T04:58:09.701Z,14.60
2017-10-11T05:00:36.032Z,15.00
2017-10-11T05:03:03.102Z,14.50
2017-10-11T05:05:29.440Z,14.50
2017-10-11T05:07:55.785Z,14.50
2017-10-11T05:10:24.759Z,14.90
2017-10-11T05:12:51.107Z,14.70
2017-10-11T05:15:17.468Z,14.70
2017-10-11T05:17:43.793Z,14.80
2017-10-11T05:20:10.151Z,14.80
2017-10-11T05:22:36.535Z,14.60
2017-10-11T05:25:02.873Z,14.60
2017-10-11T05:27:29.189Z,14.70
2017-10-11T05:29:55.508Z,14.80
2017-10-11T05:32:22.581Z,14.60
2017-10-11T05:34:49.645Z,14.60
2017-10-11T05:37:16.709Z,14.70
2017-10-11T05:39:43.857Z,14.60
2017-10-11T05:42:17.970Z,14.50
2017-10-11T05:44:50.133Z,14.70
2017-10-11T05:47:16.460Z,14.60
2017-10-11T05:49:43.561Z,14.60
2017-10-11T05:52:09.883Z,14.50
2017-10-11T05:54:36.929Z,14.60
2017-10-11T05:57:03.259Z,14.60
2017-10-11T05:59:29.572Z,14.70
2017-10-11T06:01:55.913Z,15.10
2017-10-11T06:04:22.225Z,14.70
2017-10-11T06:06:48.532Z,14.60
2017-10-11T06:09:14.885Z,14.90
2017-10-11T06:11:41.216Z,15.00
2017-10-11T06:14:10.520Z,14.70
2017-10-11T06:16:38.402Z,14.70
2017-10-11T06:19:05.828Z,14.80
2017-10-11T06:21:32.936Z,14.90
2017-10-11T06:23:59.272Z,15.10
2017-10-11T06:26:25.570Z,14.80
2017-10-11T06:28:51.891Z,14.80
2017-10-11T06:31:18.203Z,15.10
2017-10-11T06:33:46.292Z,14.80
2017-10-11T06:36:13.362Z,14.80
2017-10-11T06:38:41.621Z,14.90
2017-10-11T06:41:08.747Z,14.80
2017-10-11T06:43:35.094Z,14.70
2017-10-11T06:46:01.665Z,14.80
2017-10-11T06:48:27.992Z,14.90
2017-10-11T06:50:54.402Z,15.20
2017-10-11T06:53:20.802Z,14.90
2017-10-11T06:55:47.170Z,15.00
2017-10-11T06:58:13.498Z,14.90
2017-10-11T07:00:39.829Z,15.20
2017-10-11T07:03:08.767Z,15.00
2017-10-11T07:05:35.186Z,15.00
2017-10-11T07:08:01.613Z,15.00
2017-10-11T07:10:27.945Z,14.90
2017-10-11T07:12:55.890Z,14.80
2017-10-11T07:15:22.207Z,15.10
2017-10-11T07:17:48.862Z,14.90
2017-10-11T07:20:15.189Z,15.10
2017-10-11T07:22:41.598Z,15.10
2017-10-11T07:25:07.917Z,15.10
2017-10-11T07:27:34.263Z,15.20
2017-10-11T07:30:00.591Z,15.20
2017-10-11T07:32:28.921Z,15.10
2017-10-11T07:34:55.230Z,15.20
2017-10-11T07:37:21.533Z,15.30
2017-10-11T07:39:48.613Z,15.20
2017-10-11T07:42:14.944Z,15.20
2017-10-11T07:44:42.026Z,15.20
2017-10-11T07:47:08.348Z,15.20
2017-10-11T07:49:34.713Z,15.30
2017-10-11T07:52:01.074Z,15.60
2017-10-11T07:54:27.397Z,15.50
2017-10-11T07:56:53.793Z,15.40
2017-10-11T07:59:20.155Z,15.20
2017-10-11T08:01:46.468Z,15.20
2017-10-11T08:04:13.562Z,15.20
2017-10-11T08:06:43.221Z,15.20
2017-10-11T08:09:10.301Z,15.20
2017-10-11T08:11:36.634Z,15.20
2017-10-11T08:14:03.001Z,15.30
2017-10-11T08:16:30.095Z,15.30
2017-10-11T08:18:57.166Z,15.30
2017-10-11T08:21:29.663Z,15.60
2017-10-11T08:23:55.793Z,15.20
2017-10-11T08:26:21.960Z,15.40
2017-10-11T08:28:48.104Z,15.50
2017-10-11T08:31:14.273Z,15.50
2017-10-11T08:33:40.390Z,15.60
2017-10-11T08:36:07.345Z,15.50
2017-10-11T08:38:37.919Z,15.40
2017-10-11T08:41:04.822Z,15.50
2017-10-11T08:43:30.953Z,15.50
2017-10-11T08:45:57.842Z,15.50
2017-10-11T08:48:23.972Z,15.50
2017-10-11T08:50:50.127Z,16.00
2017-10-11T08:53:16.260Z,15.70
2017-10-11T08:55:46.129Z,15.70
2017-10-11T08:58:12.271Z,15.70
2017-10-11T09:00:39.165Z,15.60
2017-10-11T09:03:06.065Z,15.60
2017-10-11T09:05:32.209Z,15.70
2017-10-11T09:07:59.099Z,15.50
2017-10-11T09:10:28.113Z,15.50
2017-10-11T09:12:56.468Z,16.00
2017-10-11T09:15:22.593Z,15.60
2017-10-11T09:17:49.489Z,15.60
2017-10-11T09:20:16.353Z,15.70
2017-10-11T09:22:43.217Z,15.70
2017-10-11T09:25:12.187Z,15.70
2017-10-11T09:27:41.321Z,16.00
2017-10-11T09:30:07.438Z,15.70
2017-10-11T09:32:33.579Z,16.00
2017-10-11T09:34:59.770Z,15.80
2017-10-11T09:37:26.652Z,15.70
2017-10-11T09:39:52.810Z,15.70
2017-10-11T09:42:18.945Z,15.60
2017-10-11T09:44:51.228Z,15.70
2017-10-11T09:47:18.090Z,15.50
2017-10-11T09:49:44.953Z,15.60
2017-10-11T09:52:11.096Z,15.60
2017-10-11T09:54:37.244Z,15.60
2017-10-11T09:57:03.376Z,15.60
2017-10-11T09:59:29.493Z,15.70
2017-10-11T10:01:55.636Z,15.70
2017-10-11T10:04:25.030Z,15.70
2017-10-11T10:06:51.149Z,15.80
2017-10-11T10:09:17.273Z,15.70
2017-10-11T10:11:43.402Z,15.80
2017-10-11T10:14:10.338Z,15.80
2017-10-11T10:16:36.492Z,15.70
2017-10-11T10:19:03.348Z,15.70
2017-10-11T10:21:29.546Z,15.70
2017-10-11T10:24:00.038Z,15.70
2017-10-11T10:26:26.183Z,15.80
2017-10-11T10:28:53.038Z,15.70
2017-10-11T10:31:19.169Z,15.80
2017-10-11T10:33:45.301Z,15.70
2017-10-11T10:36:12.177Z,15.80
2017-10-11T10:38:38.307Z,15.80
2017-10-11T10:41:04.429Z,15.70
2017-10-11T10:43:35.148Z,15.70
2017-10-11T10:46:01.274Z,15.70
2017-10-11T10:48:27.416Z,15.70
2017-10-11T10:50:54.282Z,15.70
2017-10-11T10:53:21.160Z,15.70
2017-10-11T10:55:48.038Z,15.90
2017-10-11T10:58:14.901Z,15.70
2017-10-11T11:00:41.026Z,15.70
2017-10-11T11:03:09.731Z,15.70
2017-10-11T11:05:36.001Z,15.80
2017-10-11T11:08:02.166Z,15.80
2017-10-11T11:10:29.112Z,16.00
2017-10-11T11:12:56.047Z,15.90
2017-10-11T11:15:22.175Z,15.90
2017-10-11T11:17:48.309Z,15.90
2017-10-11T11:20:19.315Z,15.90
2017-10-11T11:22:45.445Z,15.90
2017-10-11T11:25:11.586Z,15.90
2017-10-11T11:27:37.756Z,15.90
2017-10-11T11:30:03.882Z,15.80
2017-10-11T11:32:30.006Z,15.90
2017-10-11T11:34:56.138Z,15.70
2017-10-11T11:37:23.150Z,15.90
2017-10-11T11:39:53.364Z,15.80
2017-10-11T11:42:19.489Z,15.80
2017-10-11T11:44:45.598Z,15.80
2017-10-11T11:47:11.732Z,15.80
2017-10-11T11:49:37.847Z,15.80
2017-10-11T11:52:04.782Z,15.80
2017-10-11T11:54:30.927Z,15.80
2017-10-11T11:56:57.089Z,15.90
2017-10-11T11:59:24.881Z,15.70
2017-10-11T12:01:51.093Z,16.00
2017-10-11T12:04:17.217Z,16.00
2017-10-11T12:06:43.391Z,15.80
2017-10-11T12:09:09.513Z,15.90
2017-10-11T12:11:35.644Z,16.20
2017-10-11T12:14:01.773Z,15.90
2017-10-11T12:16:31.215Z,15.90
2017-10-11T12:18:57.370Z,15.70
2017-10-11T12:21:23.489Z,15.20
2017-10-11T12:23:49.641Z,15.70
2017-10-11T12:26:16.593Z,15.70
2017-10-11T12:28:42.717Z,16.20
2017-10-11T12:31:08.919Z,15.70
2017-10-11T12:33:35.835Z,15.90
2017-10-11T12:36:05.953Z,16.20
2017-10-11T12:38:32.123Z,15.80
2017-10-11T12:40:58.246Z,15.70
2017-10-11T12:43:24.404Z,15.80
2017-10-11T12:45:50.540Z,15.80
2017-10-11T12:48:16.648Z,16.10
2017-10-11T12:50:43.568Z,15.70
2017-10-11T12:53:09.711Z,15.70
2017-10-11T12:58:08.752Z,15.70
2017-10-11T13:00:34.957Z,15.70
2017-10-11T13:03:01.175Z,15.70
2017-10-11T13:05:27.407Z,15.40
2017-10-11T13:07:53.541Z,16.00
2017-10-11T13:10:19.657Z,16.30
2017-10-11T13:13:05.989Z,15.80
2017-10-11T13:15:33.576Z,15.80
2017-10-11T13:18:01.633Z,15.70
2017-10-11T13:20:27.957Z,15.70
2017-10-11T13:22:54.280Z,15.80
2017-10-11T13:25:20.586Z,15.80
2017-10-11T13:27:46.897Z,15.80
2017-10-11T13:30:15.786Z,15.80
2017-10-11T13:32:42.209Z,15.60
2017-10-11T13:35:09.343Z,15.80
2017-10-11T13:37:35.660Z,15.70
2017-10-11T13:40:02.056Z,15.50
2017-10-11T13:42:28.497Z,15.60
2017-10-11T13:44:54.987Z,15.60
2017-10-11T13:47:21.376Z,15.60
2017-10-11T13:49:47.707Z,15.60
2017-10-11T13:52:14.074Z,15.60
2017-10-11T13:54:40.460Z,15.70
2017-10-11T13:57:06.819Z,15.60
2017-10-11T13:59:33.237Z,15.60
2017-10-11T14:01:59.570Z,15.70
2017-10-11T14:04:25.877Z,15.60
2017-10-11T14:06:52.224Z,15.90
2017-10-11T14:09:18.760Z,15.50
2017-10-11T14:11:54.167Z,15.60
2017-10-11T14:14:23.488Z,15.60
2017-10-11T14:16:50.557Z,15.70
2017-10-11T14:19:16.897Z,15.60
2017-10-11T14:21:44.013Z,15.70
2017-10-11T14:24:10.379Z,15.70
2017-10-11T14:26:37.516Z,15.60
2017-10-11T14:29:04.017Z,15.60
2017-10-11T14:31:30.437Z,15.60
2017-10-11T14:33:57.568Z,15.60
2017-10-11T14:36:24.616Z,15.90
2017-10-11T14:38:50.963Z,15.80
2017-10-11T14:41:18.018Z,15.80
2017-10-11T14:43:44.416Z,15.80
2017-10-11T14:46:10.779Z,15.80
2017-10-11T14:48:37.137Z,15.70
2017-10-11T14:51:04.459Z,16.20
2017-10-11T14:53:30.770Z,15.50
2017-10-11T14:55:57.090Z,16.00
2017-10-11T14:58:24.142Z,15.90
2017-10-11T15:00:51.269Z,15.90
2017-10-11T15:03:17.577Z,15.90
2017-10-11T15:05:44.696Z,15.80
2017-10-11T15:08:11.018Z,15.80
2017-10-11T15:10:37.354Z,16.30
2017-10-11T15:13:03.736Z,15.90
2017-10-11T15:15:30.426Z,15.80
2017-10-11T15:17:57.162Z,15.90
2017-10-11T15:20:23.733Z,15.90
2017-10-11T15:22:50.087Z,15.90
2017-10-11T15:25:16.422Z,15.80
2017-10-11T15:27:42.797Z,15.80
2017-10-11T15:30:09.766Z,15.90
2017-10-11T15:32:36.142Z,15.90
2017-10-11T15:35:02.469Z,15.90
2017-10-11T15:37:28.786Z,15.90
2017-10-11T15:39:55.097Z,15.80
2017-10-11T15:42:22.197Z,15.90
2017-10-11T15:44:48.512Z,15.90
2017-10-11T15:47:14.866Z,15.90
2017-10-11T15:49:41.922Z,15.80
2017-10-11T15:52:08.224Z,15.80
2017-10-11T15:54:34.525Z,15.70
2017-10-11T15:57:00.859Z,15.80
2017-10-11T15:59:27.637Z,15.70
2017-10-11T16:01:54.018Z,15.50
2017-10-11T16:04:20.337Z,15.70
2017-10-11T16:06:49.694Z,15.70
2017-10-11T16:09:16.018Z,15.80
2017-10-11T16:11:43.598Z,15.70
2017-10-11T16:14:10.673Z,15.70
2017-10-11T16:16:37.736Z,15.70
2017-10-11T16:19:04.208Z,15.70
2017-10-11T16:21:30.558Z,16.00
2017-10-11T16:23:57.656Z,15.50
2017-10-11T16:26:24.341Z,15.40
2017-10-11T16:28:50.661Z,15.50
2017-10-11T16:31:16.981Z,15.70
2017-10-11T16:33:44.059Z,15.50
2017-10-11T16:36:14.190Z,15.50
2017-10-11T16:38:41.302Z,15.40
2017-10-11T16:41:07.790Z,15.60
2017-10-11T16:43:34.235Z,15.40
2017-10-11T16:46:00.597Z,15.50
2017-10-11T16:48:26.913Z,15.60
2017-10-11T16:50:53.262Z,15.50
2017-10-11T16:53:19.598Z,15.80
2017-10-11T16:55:46.030Z,15.40
2017-10-11T16:58:12.342Z,15.40
2017-10-11T17:00:38.684Z,15.00
2017-10-11T17:03:05.002Z,15.40
2017-10-11T17:05:32.070Z,15.20
2017-10-11T17:07:58.372Z,15.20
2017-10-11T17:10:24.682Z,15.20
2017-10-11T17:12:51.118Z,15.10
2017-10-11T17:15:17.473Z,15.40
2017-10-11T17:17:43.806Z,15.10
2017-10-11T17:20:10.864Z,15.10
2017-10-11T17:22:37.236Z,15.20
2017-10-11T17:25:04.526Z,15.00
2017-10-11T17:27:30.853Z,15.10
2017-10-11T17:30:00.566Z,15.10
2017-10-11T17:32:26.869Z,15.10
2017-10-11T17:34:53.333Z,15.10
2017-10-11T17:37:19.635Z,15.10
2017-10-11T17:39:45.969Z,15.10
2017-10-11T17:42:12.276Z,15.10
2017-10-11T17:44:39.644Z,15.20
2017-10-11T17:47:06.085Z,15.10
2017-10-11T17:49:36.290Z,15.10
2017-10-11T17:52:02.620Z,15.10
2017-10-11T17:54:28.959Z,15.10
2017-10-11T17:56:55.316Z,15.10
2017-10-11T17:59:21.652Z,15.10
2017-10-11T18:01:47.973Z,14.90
2017-10-11T18:04:15.581Z,15.20
2017-10-11T18:06:41.915Z,15.20
2017-10-11T18:09:08.267Z,15.30
2017-10-11T18:11:34.590Z,15.20
2017-10-11T18:14:00.964Z,15.20
2017-10-11T18:16:27.286Z,15.20
2017-10-11T18:18:54.372Z,15.20
2017-10-11T18:21:22.197Z,15.10
2017-10-11T18:23:48.605Z,15.20
2017-10-11T18:26:17.827Z,15.20
2017-10-11T18:28:44.205Z,15.20
2017-10-11T18:31:10.658Z,15.20
2017-10-11T18:33:37.005Z,15.30
2017-10-11T18:36:03.331Z,15.30
2017-10-11T18:38:29.779Z,15.30
2017-10-11T18:40:56.162Z,15.50
2017-10-11T18:43:22.534Z,15.30
2017-10-11T18:45:49.096Z,15.40
2017-10-11T18:48:15.627Z,15.30
2017-10-11T18:50:43.063Z,15.40
2017-10-11T18:53:09.381Z,15.40
2017-10-11T18:55:35.702Z,15.30
2017-10-11T18:58:02.033Z,15.50
2017-10-11T19:00:28.376Z,15.50
2017-10-11T19:02:54.728Z,15.60
2017-10-11T19:05:21.034Z,15.90
2017-10-11T19:07:47.362Z,15.50
2017-10-11T19:10:13.733Z,15.60
2017-10-11T19:12:40.167Z,15.50
2017-10-11T19:15:06.498Z,15.60
2017-10-11T19:17:32.824Z,15.60
2017-10-11T19:19:59.233Z,15.90
2017-10-11T19:22:25.648Z,15.60
2017-10-11T19:24:52.105Z,15.70
2017-10-11T19:27:18.421Z,15.50
2017-10-11T19:29:44.838Z,15.70
2017-10-11T19:32:11.969Z,15.80
2017-10-11T19:34:38.369Z,15.60
2017-10-11T19:37:05.442Z,15.80
2017-10-11T19:39:32.552Z,15.90
2017-10-11T19:41:59.021Z,15.90
2017-10-11T19:44:25.373Z,15.90
2017-10-11T19:46:51.693Z,16.10
2017-10-11T19:49:18.125Z,16.00
2017-10-11T19:51:45.193Z,16.00
2017-10-11T19:54:11.578Z,16.00
2017-10-11T19:56:37.897Z,16.00
2017-10-11T19:59:05.031Z,16.00
2017-10-11T20:01:31.456Z,16.00
2017-10-11T20:03:57.848Z,16.00
2017-10-11T20:06:24.223Z,15.90
2017-10-11T20:08:53.678Z,15.90
2017-10-11T20:11:19.996Z,15.80
2017-10-11T20:13:46.304Z,15.90
2017-10-11T20:16:12.642Z,16.00
2017-10-11T20:18:42.223Z,15.90
2017-10-11T20:21:08.679Z,16.10
2017-10-11T20:23:35.242Z,16.10
2017-10-11T20:26:01.665Z,16.20
2017-10-11T20:28:27.993Z,16.10
2017-10-11T20:30:55.073Z,16.40
2017-10-11T20:33:21.405Z,16.10
2017-10-11T20:35:47.817Z,16.00
2017-10-11T20:38:14.206Z,15.90
2017-10-11T20:40:40.574Z,15.90
2017-10-11T20:43:08.055Z,15.80
2017-10-11T20:45:35.177Z,15.90
2017-10-11T20:48:03.794Z,16.00
2017-10-11T20:50:30.619Z,16.00
2017-10-11T20:52:57.050Z,15.90
2017-10-11T20:55:23.358Z,15.80
2017-10-11T20:57:50.411Z,15.90
2017-10-11T21:00:16.971Z,15.90
2017-10-11T21:02:43.454Z,15.90
2017-10-11T21:05:22.376Z,15.90
2017-10-11T21:07:51.171Z,15.80
2017-10-11T21:10:17.493Z,15.60
2017-10-11T21:12:47.707Z,16.00
2017-10-11T21:15:14.016Z,16.00
2017-10-11T21:17:40.340Z,16.00
2017-10-11T21:20:07.420Z,16.10
2017-10-11T21:22:33.762Z,16.10
2017-10-11T21:25:00.289Z,16.10
2017-10-11T21:27:27.676Z,16.10
2017-10-11T21:29:59.924Z,16.00
2017-10-11T21:32:35.972Z,16.00
2017-10-11T21:35:02.115Z,16.00
2017-10-11T21:37:28.418Z,16.00
2017-10-11T21:39:54.544Z,16.00
2017-10-11T21:42:20.672Z,15.90
2017-10-11T21:44:46.802Z,16.00
2017-10-11T21:47:12.944Z,16.00
2017-10-11T21:49:39.159Z,16.00
2017-10-11T21:52:05.510Z,16.20
2017-10-11T21:54:39.696Z,16.00
2017-10-11T21:57:06.108Z,15.90
2017-10-11T21:59:38.148Z,16.00
2017-10-11T22:02:09.714Z,16.00
2017-10-11T22:04:37.102Z,16.10
2017-10-11T22:07:03.233Z,16.10
2017-10-11T22:09:29.357Z,16.10
2017-10-11T22:11:55.486Z,16.00
2017-10-11T22:14:21.598Z,15.90
2017-10-11T22:16:47.726Z,15.90
2017-10-11T22:19:13.857Z,15.90
2017-10-11T22:21:40.787Z,16.00
2017-10-11T22:24:06.933Z,16.60
2017-10-11T22:26:33.046Z,15.90
2017-10-11T22:29:00.065Z,16.00
2017-10-11T22:31:26.220Z,16.00
2017-10-11T22:33:58.810Z,16.20
2017-10-11T22:36:24.973Z,15.90
2017-10-11T22:38:51.101Z,15.90
2017-10-11T22:41:17.226Z,16.00
2017-10-11T22:43:44.112Z,16.00
2017-10-11T22:46:10.241Z,16.00
2017-10-11T22:48:38.670Z,16.00
2017-10-11T22:51:07.561Z,15.90
2017-10-11T22:53:34.475Z,16.10
2017-10-11T22:56:00.581Z,16.10
2017-10-11T22:58:30.802Z,16.10
2017-10-11T23:00:57.814Z,15.90
2017-10-11T23:03:23.955Z,15.90
2017-10-11T23:05:50.073Z,15.90
2017-10-11T23:08:19.195Z,15.80
2017-10-11T23:10:46.046Z,15.90
2017-10-11T23:13:13.964Z,15.90
2017-10-11T23:15:40.084Z,15.90
2017-10-11T23:18:06.943Z,15.80
2017-10-11T23:20:33.094Z,15.80
2017-10-11T23:22:59.966Z,15.70
2017-10-11T23:25:26.833Z,15.70
2017-10-11T23:27:52.958Z,15.60
2017-10-11T23:30:19.091Z,15.70
2017-10-11T23:32:45.233Z,15.70
2017-10-11T23:35:11.382Z,15.70
2017-10-11T23:37:37.504Z,15.80
2017-10-11T23:40:03.640Z,15.90
2017-10-11T23:42:31.405Z,15.90
2017-10-11T23:44:57.516Z,15.90
2017-10-11T23:47:23.638Z,15.90
2017-10-11T23:49:49.760Z,15.80
2017-10-11T23:52:15.877Z,15.70
2017-10-11T23:54:48.320Z,15.80
2017-10-11T23:57:14.497Z,15.70
2017-10-11T23:59:44.460Z,15.70
